Time;durP1;ratioP1;P1;durP2;ratioP2;P2;SDS_P1;SDS_P2;PMS_P1;PMS_P2;Temp;Humidity;BMP_temperature;BMP_pressure;BME280_temperature;BME280_humidity;BME280_pressure;Samples;Min_cycle;Max_cycle;Signal;HPM_P1;HPM_P2
2021/04/02 00:00:18;;;;;;;;;;;;;;;8.67;100.00;95817.44;1035694;28;19910;-69
2021/04/02 00:00:52;;;;;;;;;;;;;;;8.64;100.00;95823.94;1034025;28;19916;-69
2021/04/02 00:01:22;;;;;;;;;;;;;;;8.22;100.00;95751.34;1037872;28;19917;-68
2021/04/02 00:01:52;;;;;;;;;;;;;;;8.76;100.00;95820.38;1032357;28;19914;-69
2021/04/02 00:02:23;;;;;;;;;;;;;;;8.75;100.00;95819.56;1040094;28;20716;-69
2021/04/02 00:02:53;;;;;;;;;;;;;;;8.80;100.00;95822.25;1042094;28;19912;-68
2021/04/02 00:03:24;;;;;;;;;;;;;;;8.84;100.00;95822.53;1037282;28;19913;-69
2021/04/02 00:03:54;;;;;;;;;;;;;;;8.85;100.00;95819.69;1043769;28;19962;-69
2021/04/02 00:04:25;;;;;;;;;;;;;;;8.81;100.00;95825.66;1039308;28;20068;-70
2021/04/02 00:04:55;;;;;;;;;;;;;;;8.80;100.00;95818.84;1043889;28;20285;-69
2021/04/02 00:05:25;;;;;;;;;;;;;;;8.85;100.00;95824.13;1048293;28;19983;-69
2021/04/02 00:05:56;;;;;;;;;;;;;;;8.89;100.00;95825.22;1047994;28;19909;-69
2021/04/02 00:06:26;;;;;;;;;;;;;;;8.99;100.00;95822.69;1043442;28;19927;-69
2021/04/02 00:06:56;;;;;;;;;;;;;;;9.01;100.00;95822.41;1039932;28;19935;-69
2021/04/02 00:07:27;;;;;;;;;;;;;;;8.98;100.00;95815.84;1035516;28;19917;-68
2021/04/02 00:07:57;;;;;;;;;;;;;;;9.04;100.00;95820.09;1035424;28;20010;-70
2021/04/02 00:08:27;;;;;;;;;;;;;;;9.03;100.00;95821.13;1035252;28;20078;-69
2021/04/02 00:08:58;;;;;;;;;;;;;;;9.08;100.00;95818.53;1031418;28;19964;-70
2021/04/02 00:09:28;;;;;;;;;;;;;;;9.11;100.00;95819.88;1035654;28;20414;-69
2021/04/02 00:09:58;;;;;;;;;;;;;;;9.11;100.00;95812.81;1031691;28;20319;-70
2021/04/02 00:10:31;;;;;;;;;;;;;;;9.08;100.00;95825.59;1031415;28;19929;-69
2021/04/02 00:11:05;;;;;;;;;;;;;;;9.07;100.00;95816.19;1031823;28;19965;-70
2021/04/02 00:11:36;;;;;;;;;;;;;;;9.08;100.00;95818.53;1034642;28;19952;-68
2021/04/02 00:12:06;;;;;;;;;;;;;;;9.12;100.00;95819.63;1036649;28;19921;-69
2021/04/02 00:12:37;;;;;;;;;;;;;;;9.11;100.00;95818.03;1035930;28;19917;-70
2021/04/02 00:13:07;;;;;;;;;;;;;;;9.19;100.00;95816.81;1035266;28;19924;-69
2021/04/02 00:13:41;;;;;;;;;;;;;;;9.21;100.00;95810.25;1036036;28;19913;-69
2021/04/02 00:14:12;;;;;;;;;;;;;;;9.19;100.00;95814.97;1032099;28;19964;-70
2021/04/02 00:14:42;;;;;;;;;;;;;;;9.02;100.00;95790.78;1030668;28;19921;-66
2021/04/02 00:15:16;;;;;;;;;;;;;;;9.17;100.00;95816.25;1031544;28;19924;-69
2021/04/02 00:15:46;;;;;;;;;;;;;;;9.19;100.00;95814.97;1026953;28;20399;-69
2021/04/02 00:16:17;;;;;;;;;;;;;;;9.21;100.00;95812.88;1028056;28;19921;-68
2021/04/02 00:16:48;;;;;;;;;;;;;;;9.21;100.00;95807.63;1035437;28;19916;-69
2021/04/02 00:17:18;;;;;;;;;;;;;;;9.26;100.00;95817.38;1035474;28;19956;-69
2021/04/02 00:17:48;;;;;;;;;;;;;;;9.27;100.00;95816.31;1035970;28;19918;-69
2021/04/02 00:18:19;;;;;;;;;;;;;;;9.28;100.00;95811.88;1037521;28;19939;-67
2021/04/02 00:18:49;;;;;;;;;;;;;;;9.25;100.00;95809.75;1039674;28;19939;-68
2021/04/02 00:19:20;;;;;;;;;;;;;;;9.26;100.00;95809.53;1040213;28;19917;-69
2021/04/02 00:19:50;;;;;;;;;;;;;;;9.30;100.00;95813.22;1047873;28;20772;-69
2021/04/02 00:20:20;;;;;;;;;;;;;;;9.32;100.00;95812.94;1043620;28;19920;-69
2021/04/02 00:20:51;;;;;;;;;;;;;;;9.32;100.00;95807.69;1044084;28;19917;-69
2021/04/02 00:21:21;;;;;;;;;;;;;;;9.34;100.00;95810.88;1039604;28;20418;-69
2021/04/02 00:21:51;;;;;;;;;;;;;;;9.37;100.00;95807.75;1031794;28;20387;-69
2021/04/02 00:22:22;;;;;;;;;;;;;;;9.37;100.00;95805.13;1031534;28;19971;-69
2021/04/02 00:22:52;;;;;;;;;;;;;;;9.36;100.00;95812.19;1031593;28;19918;-69
2021/04/02 00:23:22;;;;;;;;;;;;;;;9.35;100.00;95807.19;1028990;28;19920;-69
2021/04/02 00:23:53;;;;;;;;;;;;;;;9.37;100.00;95805.13;1023382;29;19993;-69
2021/04/02 00:24:23;;;;;;;;;;;;;;;9.38;100.00;95807.47;1019531;29;19922;-69
2021/04/02 00:24:53;;;;;;;;;;;;;;;9.38;100.00;95801.47;1023878;28;19915;-69
2021/04/02 00:25:24;;;;;;;;;;;;;;;9.42;100.00;95805.97;1030919;28;20502;-69
2021/04/02 00:25:54;;;;;;;;;;;;;;;9.39;100.00;95800.44;1035845;28;19918;-69
2021/04/02 00:26:24;;;;;;;;;;;;;;;9.38;100.00;95804.88;1035472;28;20453;-69
2021/04/02 00:26:55;;;;;;;;;;;;;;;9.42;100.00;95805.16;1030312;28;19924;-69
2021/04/02 00:27:25;;;;;;;;;;;;;;;9.37;100.00;95800.69;1027811;28;19995;-70
2021/04/02 00:27:56;;;;;;;;;;;;;;;9.35;100.00;95796.72;1023526;28;19965;-70
2021/04/02 00:28:26;;;;;;;;;;;;;;;9.35;100.00;95801.97;1026721;28;19918;-69
2021/04/02 00:28:56;;;;;;;;;;;;;;;9.35;100.00;95801.97;1024087;28;19922;-68
2021/04/02 00:29:27;;;;;;;;;;;;;;;9.38;100.00;95796.22;1023573;28;19918;-69
2021/04/02 00:29:57;;;;;;;;;;;;;;;9.36;100.00;95803.56;1032481;28;19917;-69
2021/04/02 00:30:28;;;;;;;;;;;;;;;9.35;100.00;95797.50;1037333;28;19913;-68
2021/04/02 00:30:59;;;;;;;;;;;;;;;9.35;100.00;95800.13;1042627;28;20370;-68
2021/04/02 00:31:29;;;;;;;;;;;;;;;9.32;100.00;95803.28;1035801;28;19913;-69
2021/04/02 00:31:59;;;;;;;;;;;;;;;9.34;100.00;95800.41;1031069;28;19929;-69
2021/04/02 00:32:29;;;;;;;;;;;;;;;9.32;100.00;95802.47;1031461;28;19918;-69
2021/04/02 00:33:00;;;;;;;;;;;;;;;9.29;100.00;95797.72;1027762;28;20449;-69
2021/04/02 00:33:30;;;;;;;;;;;;;;;9.30;100.00;95799.31;1037453;28;19918;-69
2021/04/02 00:34:02;;;;;;;;;;;;;;;9.31;100.00;95795.66;1043607;28;19913;-69
2021/04/02 00:34:32;;;;;;;;;;;;;;;9.29;100.00;95789.88;1039560;28;20394;-69
2021/04/02 00:35:03;;;;;;;;;;;;;;;9.29;100.00;95800.34;1039599;28;19917;-69
2021/04/02 00:35:33;;;;;;;;;;;;;;;9.30;100.00;95796.72;1035902;28;19918;-69
2021/04/02 00:36:04;;;;;;;;;;;;;;;9.27;100.00;95799.84;1031582;28;19920;-69
2021/04/02 00:36:34;;;;;;;;;;;;;;;9.27;100.00;95799.84;1039592;28;19912;-69
2021/04/02 00:37:04;;;;;;;;;;;;;;;9.25;100.00;95794.84;1035509;28;19902;-69
2021/04/02 00:37:35;;;;;;;;;;;;;;;9.23;100.00;95794.31;1035579;28;19995;-69
2021/04/02 00:38:05;;;;;;;;;;;;;;;9.22;100.00;95792.72;1031458;28;19910;-69
2021/04/02 00:38:36;;;;;;;;;;;;;;;9.23;100.00;95793.53;1027247;28;20428;-69
2021/04/02 00:39:06;;;;;;;;;;;;;;;9.24;100.00;95795.09;1031597;28;19973;-69
2021/04/02 00:39:36;;;;;;;;;;;;;;;9.24;100.00;95790.66;1031695;28;19921;-67
2021/04/02 00:40:09;;;;;;;;;;;;;;;9.23;100.00;95793.53;1031360;28;20273;-68
2021/04/02 00:40:52;;;;;;;;;;;;;;;9.21;100.00;95789.31;1026579;28;19976;-68
2021/04/02 00:41:23;;;;;;;;;;;;;;;9.23;100.00;95793.53;1025059;28;20640;-69
2021/04/02 00:41:53;;;;;;;;;;;;;;;9.23;100.00;95788.28;1029439;28;19969;-68
2021/04/02 00:42:24;;;;;;;;;;;;;;;9.26;100.00;95795.66;1027640;28;20000;-69
2021/04/02 00:42:54;;;;;;;;;;;;;;;9.27;100.00;95794.59;1027576;28;19946;-68
2021/04/02 00:43:25;;;;;;;;;;;;;;;9.27;100.00;95791.97;1031447;28;19980;-68
2021/04/02 00:43:55;;;;;;;;;;;;;;;9.25;100.00;95788.81;1038266;28;19917;-67
2021/04/02 00:44:27;;;;;;;;;;;;;;;9.22;100.00;95792.72;1039491;28;19913;-69
2021/04/02 00:44:57;;;;;;;;;;;;;;;9.25;100.00;95791.44;1036142;28;19924;-68
2021/04/02 00:45:28;;;;;;;;;;;;;;;9.26;100.00;95793.81;1039181;28;19913;-68
2021/04/02 00:45:58;;;;;;;;;;;;;;;9.24;100.00;95790.66;1035605;28;19914;-67
2021/04/02 00:46:29;;;;;;;;;;;;;;;9.23;100.00;95788.28;1031494;28;19914;-68
2021/04/02 00:46:59;;;;;;;;;;;;;;;9.22;100.00;95795.34;1035530;28;19925;-68
2021/04/02 00:47:29;;;;;;;;;;;;;;;9.22;100.00;95790.09;1031537;28;19957;-69
2021/04/02 00:48:00;;;;;;;;;;;;;;;9.25;100.00;95786.97;1031910;28;19910;-68
2021/04/02 00:48:30;;;;;;;;;;;;;;;9.24;100.00;95787.25;1034658;28;19928;-69
2021/04/02 00:49:00;;;;;;;;;;;;;;;9.27;100.00;95789.34;1029350;28;19910;-68
2021/04/02 00:49:31;;;;;;;;;;;;;;;9.22;100.00;95790.09;1035945;28;20094;-69
2021/04/02 00:50:01;;;;;;;;;;;;;;;9.21;100.00;95791.94;1039534;28;19928;-69
2021/04/02 00:50:39;;;;;;;;;;;;;;;9.22;100.00;95790.09;1039417;28;19909;-68
2021/04/02 00:51:18;;;;;;;;;;;;;;;9.18;100.00;95789.81;1040671;28;19970;-68
2021/04/02 00:51:48;;;;;;;;;;;;;;;9.17;100.00;95790.88;1035780;28;19919;-68
2021/04/02 00:52:19;;;;;;;;;;;;;;;9.16;100.00;95788.50;1039161;28;19917;-68
2021/04/02 00:52:49;;;;;;;;;;;;;;;9.11;100.00;95791.88;1036536;28;19920;-68
2021/04/02 00:53:20;;;;;;;;;;;;;;;9.11;100.00;95788.47;1035696;28;19913;-68
2021/04/02 00:53:50;;;;;;;;;;;;;;;9.10;100.00;95787.69;1023131;28;20001;-68
2021/04/02 00:54:21;;;;;;;;;;;;;;;9.11;100.00;95789.25;1023417;29;19918;-68
2021/04/02 00:54:51;;;;;;;;;;;;;;;9.07;100.00;95790.00;1027691;28;19914;-68
2021/04/02 00:55:21;;;;;;;;;;;;;;;9.06;100.00;95785.81;1031475;28;20045;-68
2021/04/02 00:55:52;;;;;;;;;;;;;;;9.02;100.00;95785.53;1039095;28;20397;-68
2021/04/02 00:56:22;;;;;;;;;;;;;;;8.58;100.00;95717.69;1043991;28;19917;-69
2021/04/02 00:56:52;;;;;;;;;;;;;;;9.08;100.00;95787.13;1035297;28;19909;-68
2021/04/02 00:57:22;;;;;;;;;;;;;;;9.06;100.00;95785.81;1039613;28;20004;-69
2021/04/02 00:57:53;;;;;;;;;;;;;;;9.04;100.00;95790.50;1035453;28;19913;-69
2021/04/02 00:58:23;;;;;;;;;;;;;;;9.04;100.00;95788.69;1034908;28;19913;-68
2021/04/02 00:58:55;;;;;;;;;;;;;;;9.04;100.00;95786.06;1030878;28;19921;-66
2021/04/02 00:59:25;;;;;;;;;;;;;;;9.02;100.00;95788.16;1027492;28;19914;-68
2021/04/02 00:59:56;;;;;;;;;;;;;;;9.04;100.00;95787.88;1023496;29;19918;-68
2021/04/02 01:00:27;;;;;;;;;;;;;;;8.99;100.00;95788.66;1023062;28;19964;-68
2021/04/02 01:00:57;;;;;;;;;;;;;;;8.97;100.00;95795.97;1029169;28;19918;-68
2021/04/02 01:01:27;;;;;;;;;;;;;;;8.95;100.00;95795.41;1035836;28;19914;-69
2021/04/02 01:01:57;;;;;;;;;;;;;;;8.90;100.00;95795.38;1035513;28;19967;-68
2021/04/02 01:02:28;;;;;;;;;;;;;;;8.90;100.00;95798.00;1039140;28;20335;-68
2021/04/02 01:02:58;;;;;;;;;;;;;;;8.87;100.00;95790.66;1035630;28;19917;-68
2021/04/02 01:03:29;;;;;;;;;;;;;;;8.85;100.00;95792.72;1033738;28;19957;-68
2021/04/02 01:03:59;;;;;;;;;;;;;;;8.86;100.00;95789.88;1035525;28;19917;-68
2021/04/02 01:04:29;;;;;;;;;;;;;;;8.84;100.00;95791.16;1031436;28;19985;-68
2021/04/02 01:05:00;;;;;;;;;;;;;;;8.83;100.00;95794.81;1035384;28;20421;-68
2021/04/02 01:05:31;;;;;;;;;;;;;;;8.83;100.00;95792.19;1039893;28;20363;-68
2021/04/02 01:06:06;;;;;;;;;;;;;;;8.78;100.00;95787.69;1028700;28;21142;-68
2021/04/02 01:06:36;;;;;;;;;;;;;;;8.78;100.00;95786.91;1035370;28;20020;-67
2021/04/02 01:07:06;;;;;;;;;;;;;;;8.77;100.00;95785.34;1035662;28;19905;-69
2021/04/02 01:07:36;;;;;;;;;;;;;;;8.69;100.00;95784.75;1035032;28;20487;-67
2021/04/02 01:08:08;;;;;;;;;;;;;;;8.69;100.00;95787.38;1043652;28;19955;-68
2021/04/02 01:08:38;;;;;;;;;;;;;;;8.67;100.00;95793.88;1039190;28;20052;-69
2021/04/02 01:09:09;;;;;;;;;;;;;;;8.63;100.00;95793.59;1030889;28;20006;-68
2021/04/02 01:09:39;;;;;;;;;;;;;;;8.64;100.00;95786.53;1035592;28;20407;-68
2021/04/02 01:10:10;;;;;;;;;;;;;;;8.66;100.00;95789.69;1035488;28;20303;-69
2021/04/02 01:10:41;;;;;;;;;;;;;;;8.65;100.00;95788.91;1035498;28;19996;-68
2021/04/02 01:11:12;;;;;;;;;;;;;;;8.67;100.00;95786.81;1038932;28;20685;-69
2021/04/02 01:11:42;;;;;;;;;;;;;;;8.66;100.00;95795.72;1031077;28;19917;-68
2021/04/02 01:12:13;;;;;;;;;;;;;;;8.67;100.00;95792.06;1031464;28;19910;-68
2021/04/02 01:12:43;;;;;;;;;;;;;;;8.66;100.00;95790.47;1031091;28;19953;-69
2021/04/02 01:13:15;;;;;;;;;;;;;;;8.67;100.00;95786.03;1031420;28;19948;-68
2021/04/02 01:13:46;;;;;;;;;;;;;;;8.63;100.00;95793.59;1035779;28;20021;-68
2021/04/02 01:14:16;;;;;;;;;;;;;;;8.62;100.00;95789.41;1035614;28;19917;-69
2021/04/02 01:14:46;;;;;;;;;;;;;;;8.59;100.00;95794.34;1033594;28;19917;-69
2021/04/02 01:15:20;;;;;;;;;;;;;;;8.55;100.00;95794.06;1031379;28;19999;-68
2021/04/02 01:15:54;;;;;;;;;;;;;;;8.51;100.00;95795.56;1023802;28;20013;-69
2021/04/02 01:16:27;;;;;;;;;;;;;;;8.46;100.00;95790.31;1024879;28;20005;-69
2021/04/02 01:16:58;;;;;;;;;;;;;;;8.42;100.00;95795.25;1028504;28;19918;-69
2021/04/02 01:17:28;;;;;;;;;;;;;;;8.36;100.00;95790.19;1028860;28;19914;-69
2021/04/02 01:17:59;;;;;;;;;;;;;;;8.31;100.00;95790.13;1031635;28;19913;-68
2021/04/02 01:18:33;;;;;;;;;;;;;;;8.27;100.00;95793.22;1026476;28;20490;-69
2021/04/02 01:19:23;;;;;;;;;;;;;;;8.20;100.00;95797.84;1035974;28;19913;-69
2021/04/02 01:19:53;;;;;;;;;;;;;;;8.12;100.00;95795.69;1038552;28;19916;-69
2021/04/02 01:20:24;;;;;;;;;;;;;;;8.08;100.00;95794.59;1038457;28;19999;-69
2021/04/02 01:20:55;;;;;;;;;;;;;;;8.05;100.00;95797.69;1029020;28;19924;-69
2021/04/02 01:21:25;;;;;;;;;;;;;;;8.01;100.00;95793.97;1034596;28;20404;-69
2021/04/02 01:21:57;;;;;;;;;;;;;;;7.98;100.00;95797.88;1035465;28;19909;-69
2021/04/02 01:22:27;;;;;;;;;;;;;;;7.94;100.00;95799.38;1031459;28;20485;-69
2021/04/02 01:22:59;;;;;;;;;;;;;;;7.93;100.00;95799.66;1031161;28;19910;-70
2021/04/02 01:23:34;;;;;;;;;;;;;;;7.96;100.00;95796.53;1031461;28;19918;-68
2021/04/02 01:24:18;;;;;;;;;;;;;;;7.91;100.00;95802.50;1028916;28;19933;-69
2021/04/02 01:24:54;;;;;;;;;;;;;;;7.87;100.00;95803.22;1035540;28;19913;-69
2021/04/02 01:25:33;;;;;;;;;;;;;;;7.84;100.00;95804.50;1035831;28;20004;-69
2021/04/02 01:26:06;;;;;;;;;;;;;;;7.85;100.00;95800.88;1039317;28;19913;-68
2021/04/02 01:26:57;;;;;;;;;;;;;;;7.86;100.00;95801.66;1032970;28;20279;-69
2021/04/02 01:27:42;;;;;;;;;;;;;;;7.85;100.00;95802.69;1031740;28;20389;-69
2021/04/02 01:28:27;;;;;;;;;;;;;;;7.87;100.00;95803.22;1034447;28;19913;-67
2021/04/02 01:28:58;;;;;;;;;;;;;;;7.86;100.00;95801.66;1039514;28;20314;-69
2021/04/02 01:29:34;;;;;;;;;;;;;;;7.87;100.00;95804.00;1039805;28;19901;-69
2021/04/02 01:30:11;;;;;;;;;;;;;;;7.87;100.00;95800.63;1039389;28;20369;-70
2021/04/02 01:30:41;;;;;;;;;;;;;;;7.94;100.00;95803.81;1035181;28;20393;-69
2021/04/02 01:31:12;;;;;;;;;;;;;;;7.94;100.00;95804.63;1031251;28;19906;-69
2021/04/02 01:31:43;;;;;;;;;;;;;;;7.97;100.00;95809.34;1030166;28;19940;-69
2021/04/02 01:32:14;;;;;;;;;;;;;;;7.98;100.00;95805.72;1026924;28;19906;-69
2021/04/02 01:32:45;;;;;;;;;;;;;;;7.95;100.00;95802.81;1027444;28;19932;-70
2021/04/02 01:33:16;;;;;;;;;;;;;;;8.00;100.00;95803.66;1023922;28;20030;-69
2021/04/02 01:33:46;;;;;;;;;;;;;;;8.04;100.00;95807.34;1019155;29;20430;-69
2021/04/02 01:34:20;;;;;;;;;;;;;;;8.09;100.00;95805.84;1019686;29;19911;-68
2021/04/02 01:34:52;;;;;;;;;;;;;;;8.15;100.00;95810.06;1027695;28;19902;-69
2021/04/02 01:35:22;;;;;;;;;;;;;;;8.20;100.00;95807.53;1033949;28;19913;-69
2021/04/02 01:35:53;;;;;;;;;;;;;;;8.22;100.00;95811.47;1035726;28;20350;-70
2021/04/02 01:36:24;;;;;;;;;;;;;;;8.25;100.00;95810.19;1030822;28;19905;-69
2021/04/02 01:36:54;;;;;;;;;;;;;;;8.28;100.00;95817.53;1027301;28;20435;-69
2021/04/02 01:37:29;;;;;;;;;;;;;;;8.26;100.00;95809.94;1027470;28;19902;-69
2021/04/02 01:38:02;;;;;;;;;;;;;;;8.24;100.00;95809.38;1027168;28;19909;-69
2021/04/02 01:38:32;;;;;;;;;;;;;;;8.27;100.00;95813.34;1027618;28;19928;-68
2021/04/02 01:39:03;;;;;;;;;;;;;;;8.27;100.00;95815.97;1035230;28;19906;-68
2021/04/02 01:39:34;;;;;;;;;;;;;;;8.24;100.00;95814.63;1035203;28;19992;-69
2021/04/02 01:40:06;;;;;;;;;;;;;;;8.23;100.00;95813.03;1032551;28;19905;-69
2021/04/02 01:40:36;;;;;;;;;;;;;;;8.23;100.00;95810.44;1030823;28;20084;-68
2021/04/02 01:41:08;;;;;;;;;;;;;;;8.23;100.00;95807.81;1030502;28;19957;-68
2021/04/02 01:41:40;;;;;;;;;;;;;;;8.20;100.00;95815.38;1027250;28;19919;-68
2021/04/02 01:42:12;;;;;;;;;;;;;;;8.19;100.00;95809.34;1031257;28;19902;-69
2021/04/02 01:42:42;;;;;;;;;;;;;;;8.17;100.00;95810.63;1027227;28;19914;-68
2021/04/02 01:43:14;;;;;;;;;;;;;;;8.13;100.00;95818.16;1027608;28;19906;-68
2021/04/02 01:43:45;;;;;;;;;;;;;;;8.11;100.00;95817.59;1023588;29;20391;-68
2021/04/02 01:44:15;;;;;;;;;;;;;;;8.11;100.00;95815.00;1023506;28;19907;-69
2021/04/02 01:44:45;;;;;;;;;;;;;;;8.07;100.00;95813.91;1027241;28;20746;-69
2021/04/02 01:45:16;;;;;;;;;;;;;;;8.01;100.00;95820.91;1027506;28;19910;-68
2021/04/02 01:45:49;;;;;;;;;;;;;;;7.98;100.00;95821.41;1031302;28;19956;-68
2021/04/02 01:46:20;;;;;;;;;;;;;;;7.92;100.00;95813.75;1034881;28;20043;-69
2021/04/02 01:46:51;;;;;;;;;;;;;;;7.93;100.00;95818.72;1031977;28;20004;-69
2021/04/02 01:47:22;;;;;;;;;;;;;;;7.91;100.00;95815.56;1035103;28;19917;-69
2021/04/02 01:47:52;;;;;;;;;;;;;;;7.92;100.00;95818.97;1035744;28;19913;-69
2021/04/02 01:48:22;;;;;;;;;;;;;;;7.89;100.00;95816.84;1042732;28;19913;-69
2021/04/02 01:48:54;;;;;;;;;;;;;;;7.87;100.00;95811.84;1038786;28;19909;-69
2021/04/02 01:49:25;;;;;;;;;;;;;;;7.86;100.00;95814.72;1035456;28;19924;-68
2021/04/02 01:49:55;;;;;;;;;;;;;;;7.84;100.00;95822.00;1031016;28;19924;-68
2021/04/02 01:50:26;;;;;;;;;;;;;;;7.80;100.00;95814.63;1027210;28;19914;-69
2021/04/02 01:50:56;;;;;;;;;;;;;;;7.92;100.00;95816.38;1035378;28;19913;-68
2021/04/02 01:51:26;;;;;;;;;;;;;;;7.92;100.00;95813.75;1031008;28;20564;-68
2021/04/02 01:51:56;;;;;;;;;;;;;;;7.88;100.00;95812.63;1027315;28;19921;-68
2021/04/02 01:52:27;;;;;;;;;;;;;;;7.90;100.00;95813.97;1030977;28;19913;-69
2021/04/02 01:52:57;;;;;;;;;;;;;;;7.89;100.00;95816.84;1034645;28;19909;-68
2021/04/02 01:53:29;;;;;;;;;;;;;;;7.88;100.00;95812.63;1031258;28;19902;-68
2021/04/02 01:53:59;;;;;;;;;;;;;;;7.87;100.00;95817.06;1031093;28;20487;-67
2021/04/02 01:54:30;;;;;;;;;;;;;;;7.86;100.00;95812.88;1031306;28;19929;-68
2021/04/02 01:55:00;;;;;;;;;;;;;;;7.83;100.00;95810.75;1035617;28;19916;-68
2021/04/02 01:55:30;;;;;;;;;;;;;;;7.81;100.00;95810.19;1035767;28;19902;-67
2021/04/02 01:56:01;;;;;;;;;;;;;;;7.80;100.00;95817.25;1035282;28;19949;-69
2021/04/02 01:56:32;;;;;;;;;;;;;;;7.74;100.00;95810.38;1027374;28;19914;-69
2021/04/02 01:57:03;;;;;;;;;;;;;;;7.69;100.00;95812.94;1030944;28;19914;-68
2021/04/02 01:57:33;;;;;;;;;;;;;;;7.63;100.00;95813.91;1027345;28;19914;-69
2021/04/02 01:58:04;;;;;;;;;;;;;;;7.57;100.00;95817.47;1035450;28;19967;-68
2021/04/02 01:58:37;;;;;;;;;;;;;;;7.53;100.00;95819.78;1030553;28;20294;-69
2021/04/02 01:59:07;;;;;;;;;;;;;;;7.50;100.00;95815.03;1033073;28;19910;-68
2021/04/02 01:59:37;;;;;;;;;;;;;;;7.47;100.00;95815.50;1031240;28;19914;-68
2021/04/02 02:00:11;;;;;;;;;;;;;;;7.46;100.00;95819.16;1031756;28;19914;-68
2021/04/02 02:00:43;;;;;;;;;;;;;;;7.42;100.00;95817.28;1033371;28;19917;-69
2021/04/02 02:01:13;;;;;;;;;;;;;;;7.40;100.00;95814.13;1031729;28;20399;-69
2021/04/02 02:01:44;;;;;;;;;;;;;;;7.34;100.00;95821.06;1032218;28;19914;-69
2021/04/02 02:02:15;;;;;;;;;;;;;;;7.31;100.00;95817.16;1031360;28;19922;-68
2021/04/02 02:02:45;;;;;;;;;;;;;;;7.30;100.00;95812.16;1027136;28;20407;-68
2021/04/02 02:03:16;;;;;;;;;;;;;;;7.26;100.00;95813.66;1027717;28;20415;-68
2021/04/02 02:03:47;;;;;;;;;;;;;;;7.23;100.00;95814.94;1035418;28;20016;-68
2021/04/02 02:04:19;;;;;;;;;;;;;;;7.25;100.00;95819.91;1038336;28;19916;-69
2021/04/02 02:04:49;;;;;;;;;;;;;;;7.23;100.00;95812.31;1038837;28;19962;-68
2021/04/02 02:05:20;;;;;;;;;;;;;;;7.20;100.00;95815.41;1034665;28;19967;-68
2021/04/02 02:05:52;;;;;;;;;;;;;;;7.18;100.00;95812.25;1033843;28;19913;-69
2021/04/02 02:06:23;;;;;;;;;;;;;;;7.19;100.00;95811.22;1035289;28;20362;-68
2021/04/02 02:06:53;;;;;;;;;;;;;;;7.16;100.00;95819.53;1031093;28;19913;-68
2021/04/02 02:07:23;;;;;;;;;;;;;;;7.15;100.00;95817.94;1026767;28;19910;-68
2021/04/02 02:07:54;;;;;;;;;;;;;;;7.18;100.00;95817.47;1035156;28;19936;-68
2021/04/02 02:08:24;;;;;;;;;;;;;;;7.15;100.00;95812.72;1030963;28;19910;-68
2021/04/02 02:08:55;;;;;;;;;;;;;;;7.12;100.00;95818.41;1031297;28;19968;-68
2021/04/02 02:09:28;;;;;;;;;;;;;;;7.09;100.00;95809.25;1030511;28;20299;-68
2021/04/02 02:09:58;;;;;;;;;;;;;;;7.08;100.00;95812.91;1031972;28;20213;-68
2021/04/02 02:10:29;;;;;;;;;;;;;;;7.09;100.00;95816.28;1035191;28;19924;-68
2021/04/02 02:11:00;;;;;;;;;;;;;;;7.06;100.00;95814.16;1033332;28;19918;-68
2021/04/02 02:11:30;;;;;;;;;;;;;;;7.05;100.00;95812.59;1035183;28;19917;-68
2021/04/02 02:12:02;;;;;;;;;;;;;;;7.02;100.00;95815.66;1031375;28;19910;-68
2021/04/02 02:12:32;;;;;;;;;;;;;;;7.01;100.00;95816.69;1027122;28;19921;-69
2021/04/02 02:13:02;;;;;;;;;;;;;;;7.01;100.00;95816.69;1019065;29;19961;-69
2021/04/02 02:13:33;;;;;;;;;;;;;;;7.00;100.00;95809.88;1023149;29;19914;-68
2021/04/02 02:14:07;;;;;;;;;;;;;;;7.03;100.00;95815.41;1023248;28;19910;-68
2021/04/02 02:14:38;;;;;;;;;;;;;;;7.01;100.00;95814.88;1027801;28;20394;-69
2021/04/02 02:15:11;;;;;;;;;;;;;;;7.03;100.00;95817.22;1031187;28;19941;-69
2021/04/02 02:15:42;;;;;;;;;;;;;;;6.99;100.00;95821.34;1032083;28;19967;-68
2021/04/02 02:16:12;;;;;;;;;;;;;;;7.00;100.00;95817.72;1032457;28;19914;-68
2021/04/02 02:16:44;;;;;;;;;;;;;;;7.02;100.00;95818.28;1032667;28;19983;-69
2021/04/02 02:17:16;;;;;;;;;;;;;;;6.98;100.00;95817.16;1039208;28;19947;-68
2021/04/02 02:17:59;;;;;;;;;;;;;;;6.99;100.00;95818.75;1038254;28;19974;-68
2021/04/02 02:18:29;;;;;;;;;;;;;;;7.05;100.00;95817.78;1039749;28;19952;-69
2021/04/02 02:18:59;;;;;;;;;;;;;;;7.06;100.00;95819.38;1043390;28;19913;-68
2021/04/02 02:19:30;;;;;;;;;;;;;;;7.08;100.00;95822.53;1039440;28;19913;-68
2021/04/02 02:20:01;;;;;;;;;;;;;;;7.05;100.00;95817.78;1034802;28;20016;-68
2021/04/02 02:20:32;;;;;;;;;;;;;;;7.01;100.00;95820.09;1031153;28;19909;-68
2021/04/02 02:21:02;;;;;;;;;;;;;;;7.01;100.00;95816.69;1031718;28;19920;-68
2021/04/02 02:21:32;;;;;;;;;;;;;;;6.98;100.00;95819.78;1039210;28;19924;-68
2021/04/02 02:22:03;;;;;;;;;;;;;;;7.00;100.00;95830.75;1035157;28;19917;-68
2021/04/02 02:22:34;;;;;;;;;;;;;;;6.97;100.00;95821.56;1030818;28;20423;-68
2021/04/02 02:23:04;;;;;;;;;;;;;;;6.94;100.00;95816.84;1039145;28;19916;-69
2021/04/02 02:23:34;;;;;;;;;;;;;;;6.99;100.00;95823.97;1035292;28;19913;-69
2021/04/02 02:24:05;;;;;;;;;;;;;;;6.99;100.00;95823.97;1039167;28;19916;-69
2021/04/02 02:24:35;;;;;;;;;;;;;;;7.01;100.00;95822.72;1034950;28;20000;-68
2021/04/02 02:25:06;;;;;;;;;;;;;;;6.98;100.00;95820.56;1031571;28;19914;-68
2021/04/02 02:25:36;;;;;;;;;;;;;;;6.95;100.00;95823.66;1039046;28;19999;-69
2021/04/02 02:26:06;;;;;;;;;;;;;;;6.95;100.00;95833.28;1035485;28;19909;-69
2021/04/02 02:26:37;;;;;;;;;;;;;;;6.98;100.00;95822.38;1031010;28;19910;-68
2021/04/02 02:27:08;;;;;;;;;;;;;;;7.03;100.00;95822.44;1037256;28;19980;-68
2021/04/02 02:27:38;;;;;;;;;;;;;;;6.97;100.00;95820.78;1039513;28;19905;-68
2021/04/02 02:28:09;;;;;;;;;;;;;;;6.96;100.00;95822.59;1035095;28;19958;-68
2021/04/02 02:28:39;;;;;;;;;;;;;;;7.00;100.00;95821.09;1029916;28;19905;-68
2021/04/02 02:29:09;;;;;;;;;;;;;;;7.05;100.00;95828.25;1031389;28;19908;-68
2021/04/02 02:29:40;;;;;;;;;;;;;;;7.03;100.00;95825.06;1031085;28;19999;-69
2021/04/02 02:30:11;;;;;;;;;;;;;;;7.01;100.00;95824.53;1035188;28;19960;-68
2021/04/02 02:30:41;;;;;;;;;;;;;;;7.11;100.00;95819.47;1034825;28;19993;-68
2021/04/02 02:31:12;;;;;;;;;;;;;;;7.08;100.00;95818.13;1034866;28;19909;-68
2021/04/02 02:31:42;;;;;;;;;;;;;;;7.07;100.00;95820.94;1027589;28;20346;-68
2021/04/02 02:32:12;;;;;;;;;;;;;;;7.06;100.00;95819.38;1026745;28;19933;-67
2021/04/02 02:32:43;;;;;;;;;;;;;;;7.15;100.00;95817.94;1022932;29;20285;-68
2021/04/02 02:33:13;;;;;;;;;;;;;;;7.15;100.00;95819.78;1029704;28;20001;-68
2021/04/02 02:33:43;;;;;;;;;;;;;;;7.16;100.00;95819.53;1030883;28;20335;-68
2021/04/02 02:34:14;;;;;;;;;;;;;;;7.19;100.00;95819.03;1035215;28;20398;-68
2021/04/02 02:34:44;;;;;;;;;;;;;;;7.21;100.00;95821.41;1032105;28;19909;-68
2021/04/02 02:35:14;;;;;;;;;;;;;;;7.19;100.00;95813.81;1030961;28;20381;-68
2021/04/02 02:35:44;;;;;;;;;;;;;;;7.17;100.00;95821.09;1035182;28;19949;-68
2021/04/02 02:36:15;;;;;;;;;;;;;;;7.14;100.00;95816.34;1039132;28;19941;-68
2021/04/02 02:36:45;;;;;;;;;;;;;;;7.15;100.00;95815.34;1038900;28;19944;-68
2021/04/02 02:37:15;;;;;;;;;;;;;;;7.18;100.00;95814.88;1034957;28;19905;-68
2021/04/02 02:37:46;;;;;;;;;;;;;;;7.15;100.00;95817.94;1035150;28;19905;-68
2021/04/02 02:38:16;;;;;;;;;;;;;;;7.20;100.00;95820.63;1026508;28;19906;-68
2021/04/02 02:38:46;;;;;;;;;;;;;;;7.20;100.00;95818.00;1026893;28;19997;-68
2021/04/02 02:39:17;;;;;;;;;;;;;;;7.20;100.00;95820.63;1031084;28;19913;-68
2021/04/02 02:39:47;;;;;;;;;;;;;;;7.18;100.00;95809.66;1031182;28;19910;-67
2021/04/02 02:40:19;;;;;;;;;;;;;;;7.17;100.00;95810.66;1027098;28;19906;-65
2021/04/02 02:40:49;;;;;;;;;;;;;;;7.18;100.00;95811.47;1026889;28;20763;-67
2021/04/02 02:41:19;;;;;;;;;;;;;;;7.18;100.00;95817.47;1035422;28;19905;-68
2021/04/02 02:41:50;;;;;;;;;;;;;;;7.20;100.00;95815.41;1031358;28;19968;-68
2021/04/02 02:42:20;;;;;;;;;;;;;;;7.19;100.00;95816.44;1038874;28;19909;-68
2021/04/02 02:42:51;;;;;;;;;;;;;;;7.19;100.00;95813.03;1032613;28;19905;-68